Furney Richardson, Texas
Current Conditions -  °F | °C
As of 9:35 PM on Friday 24 Oct 2014 (Local Time) from KLXY Reporting Station
Clear Clear  
Wind Chill: 67°   Ceiling: Unl
Heat Index: 67°   Visibility: 10mi
Dew Point: 59°   Wind: 5mph
Humidity: 78%   Direction: 150°SSE
Pressure: 30.11"   Gusts: NA
Location:  31.6463°N, 96.2786°W
Report Text: KLXY 250235Z AUTO 15004KT 10SM CLR 19/15 A3011 RMK AO2 T01920152
Loading
Personal Weather Stations






























Interactive Weather Map
Tropical Storm Tracking
New forecast layout! Learn more

10-Day Weather Forecast

Advertisements
Track Severe Weather on mobile